createdAt,value
2022-08-01T00:00:48.403Z,99881.87
2022-08-01T00:03:15.633Z,99880.22
2022-08-01T00:05:44.825Z,99882.94
2022-08-01T00:08:12.107Z,99879.98
2022-08-01T00:10:39.535Z,99884.64
2022-08-01T00:13:06.696Z,99882.11
2022-08-01T00:15:35.149Z,99879.91
2022-08-01T00:18:02.390Z,99883.39
2022-08-01T00:20:29.682Z,99881.80
2022-08-01T00:22:57.442Z,99879.13
2022-08-01T00:25:34.022Z,99875.35
2022-08-01T00:28:02.202Z,99872.65
2022-08-01T00:30:32.210Z,99869.87
2022-08-01T00:33:00.684Z,99870.51
2022-08-01T00:35:27.928Z,99872.35
2022-08-01T00:37:55.395Z,99868.23
2022-08-01T00:40:23.267Z,99865.29
2022-08-01T00:42:50.514Z,99863.34
2022-08-01T00:45:17.881Z,99863.71
2022-08-01T00:47:45.122Z,99860.64
2022-08-01T00:50:12.756Z,99857.10
2022-08-01T00:52:41.788Z,99855.01
2022-08-01T00:55:13.184Z,99846.95
2022-08-01T00:58:02.581Z,99849.55
2022-08-01T01:00:30.448Z,99850.11
2022-08-01T01:03:00.283Z,99849.89
2022-08-01T01:05:27.728Z,99848.88
2022-08-01T01:08:06.034Z,99852.04
2022-08-01T01:10:48.538Z,99854.11
2022-08-01T01:13:18.673Z,99851.85
2022-08-01T01:15:57.734Z,99854.77
2022-08-01T01:18:27.143Z,99858.92
2022-08-01T01:21:22.516Z,99852.57
2022-08-01T01:23:54.777Z,99853.81
2022-08-01T01:26:39.073Z,99850.67
2022-08-01T01:29:09.245Z,99846.86
2022-08-01T01:31:51.782Z,99841.65
2022-08-01T01:34:20.911Z,99840.33
2022-08-01T01:36:49.850Z,99836.73
2022-08-01T01:39:17.611Z,99836.44
2022-08-01T01:41:45.774Z,99836.48
2022-08-01T01:44:13.351Z,99832.84
2022-08-01T01:46:41.223Z,99831.27
2022-08-01T01:49:11.664Z,99829.31
2022-08-01T01:51:40.361Z,99831.14
2022-08-01T01:54:09.870Z,99831.75
2022-08-01T01:56:49.882Z,99838.01
2022-08-01T01:59:25.616Z,99833.98
2022-08-01T02:02:04.950Z,99832.40
2022-08-01T02:04:34.989Z,99832.15
2022-08-01T02:07:02.643Z,99832.02
2022-08-01T02:09:30.815Z,99835.11
2022-08-01T02:12:08.697Z,99831.00
2022-08-01T02:14:42.221Z,99830.52
2022-08-01T02:17:12.946Z,99830.21
2022-08-01T02:19:42.150Z,99833.45
2022-08-01T02:22:11.863Z,99830.36
2022-08-01T02:24:43.985Z,99832.63
2022-08-01T02:27:14.475Z,99832.35
2022-08-01T02:29:45.433Z,99831.71
2022-08-01T02:32:16.307Z,99828.47
2022-08-01T02:34:45.325Z,99827.42
2022-08-01T02:37:12.884Z,99825.42
2022-08-01T02:39:40.666Z,99821.06
2022-08-01T02:42:09.804Z,99822.28
2022-08-01T02:44:40.719Z,99822.12
2022-08-01T02:47:08.143Z,99821.78
2022-08-01T02:49:43.817Z,99817.84
2022-08-01T02:52:18.113Z,99817.27
2022-08-01T02:54:47.093Z,99815.73
2022-08-01T02:57:14.734Z,99819.05
2022-08-01T02:59:43.760Z,99816.77
2022-08-01T03:02:13.561Z,99816.96
2022-08-01T03:04:42.393Z,99817.08
2022-08-01T03:07:11.341Z,99820.98
2022-08-01T03:09:41.517Z,99821.45
2022-08-01T03:12:13.127Z,99822.95
2022-08-01T03:14:41.984Z,99820.52
2022-08-01T03:17:10.077Z,99818.69
2022-08-01T03:19:39.304Z,99827.61
2022-08-01T03:22:13.025Z,99824.37
2022-08-01T03:24:41.999Z,99821.04
2022-08-01T03:27:10.246Z,99820.88
2022-08-01T03:29:40.781Z,99819.88
2022-08-01T03:32:09.606Z,99816.52
2022-08-01T03:34:37.153Z,99817.92
2022-08-01T03:37:08.892Z,99821.34
2022-08-01T03:39:46.678Z,99823.16
2022-08-01T03:42:17.819Z,99821.42
2022-08-01T03:44:51.441Z,99822.11
2022-08-01T03:47:19.403Z,99823.19
2022-08-01T03:49:48.712Z,99821.73
2022-08-01T03:52:16.722Z,99825.40
2022-08-01T03:54:48.830Z,99826.51
2022-08-01T03:57:23.352Z,99830.21
2022-08-01T04:00:09.032Z,99833.17
2022-08-01T04:02:43.459Z,99839.81
2022-08-01T04:05:11.744Z,99842.73
2022-08-01T04:07:40.720Z,99845.59
2022-08-01T04:10:08.533Z,99845.12
2022-08-01T04:12:36.357Z,99848.09
2022-08-01T04:15:04.315Z,99845.30
2022-08-01T04:17:31.906Z,99847.61
2022-08-01T04:19:59.565Z,99845.08
2022-08-01T04:22:26.902Z,99842.59
2022-08-01T04:24:57.428Z,99844.90
2022-08-01T04:27:51.152Z,99844.30
2022-08-01T04:30:25.903Z,99844.97
2022-08-01T04:32:56.054Z,99847.73
2022-08-01T04:36:03.519Z,99846.36
2022-08-01T04:38:14.346Z,99846.55
2022-08-01T04:40:47.192Z,99849.31
2022-08-01T04:43:15.044Z,99850.13
2022-08-01T04:45:45.072Z,99851.45
2022-08-01T04:48:14.801Z,99844.60
2022-08-01T04:50:43.367Z,99839.88
2022-08-01T04:53:15.216Z,99841.83
2022-08-01T04:55:42.504Z,99841.05
2022-08-01T04:58:15.060Z,99840.69
2022-08-01T05:00:45.083Z,99841.17
2022-08-01T05:03:12.348Z,99845.55
2022-08-01T05:05:40.928Z,99849.46
2022-08-01T05:08:09.208Z,99847.79
2022-08-01T05:10:36.542Z,99848.34
2022-08-01T05:13:03.788Z,99845.57
2022-08-01T05:15:31.164Z,99846.69
2022-08-01T05:17:58.670Z,99847.81
2022-08-01T05:20:26.745Z,99845.52
2022-08-01T05:22:54.252Z,99848.98
2022-08-01T05:25:54.373Z,99850.61
2022-08-01T05:28:08.702Z,99850.79
2022-08-01T05:30:36.367Z,99850.44
2022-08-01T05:33:03.832Z,99846.34
2022-08-01T05:35:48.931Z,99846.64
2022-08-01T05:38:17.268Z,99849.03
2022-08-01T05:40:44.747Z,99846.88
2022-08-01T05:43:12.296Z,99846.08
2022-08-01T05:45:40.053Z,99848.92
2022-08-01T05:48:07.509Z,99850.15
2022-08-01T05:50:35.584Z,99852.08
2022-08-01T05:53:03.455Z,99855.52
2022-08-01T05:55:31.009Z,99849.04
2022-08-01T05:57:58.360Z,99844.30
2022-08-01T06:00:25.825Z,99845.15
2022-08-01T06:02:53.274Z,99844.27
2022-08-01T06:05:20.422Z,99844.29
2022-08-01T06:07:47.890Z,99846.59
2022-08-01T06:10:15.244Z,99846.36
2022-08-01T06:12:42.684Z,99846.94
2022-08-01T06:15:10.354Z,99847.02
2022-08-01T06:17:37.459Z,99844.52
2022-08-01T06:20:07.467Z,99845.06
2022-08-01T06:22:36.046Z,99842.38
2022-08-01T06:25:05.597Z,99844.39
2022-08-01T06:27:36.092Z,99849.48
2022-08-01T06:30:04.471Z,99848.41
2022-08-01T06:32:32.774Z,99852.92
2022-08-01T06:35:00.449Z,99858.49
2022-08-01T06:37:33.746Z,99857.43
2022-08-01T06:40:16.627Z,99860.48
2022-08-01T06:42:47.306Z,99860.80
2022-08-01T06:45:15.042Z,99856.55
2022-08-01T06:47:44.702Z,99859.48
2022-08-01T06:50:16.286Z,99863.89
2022-08-01T06:52:43.769Z,99862.26
2022-08-01T06:55:11.165Z,99861.54
2022-08-01T06:57:41.691Z,99859.85
2022-08-01T07:00:12.031Z,99863.86
2022-08-01T07:02:39.567Z,99868.48
2022-08-01T07:05:07.064Z,99868.64
2022-08-01T07:07:34.264Z,99868.73
2022-08-01T07:10:01.626Z,99864.20
2022-08-01T07:12:28.813Z,99866.42
2022-08-01T07:14:55.922Z,99865.95
2022-08-01T07:17:23.444Z,99870.31
2022-08-01T07:19:50.944Z,99872.09
2022-08-01T07:22:23.455Z,99870.52
2022-08-01T07:24:54.490Z,99869.95
2022-08-01T07:27:25.420Z,99870.39
2022-08-01T07:29:53.756Z,99873.13
2022-08-01T07:32:21.551Z,99872.60
2022-08-01T07:34:48.983Z,99875.20
2022-08-01T07:37:17.433Z,99873.61
2022-08-01T07:40:06.820Z,99878.33
2022-08-01T07:42:34.289Z,99875.36
2022-08-01T07:45:01.631Z,99882.73
2022-08-01T07:47:28.915Z,99876.41
2022-08-01T07:50:03.354Z,99879.41
2022-08-01T07:52:31.581Z,99881.02
2022-08-01T07:55:00.107Z,99884.28
2022-08-01T07:57:27.553Z,99888.30
2022-08-01T07:59:56.294Z,99884.83
2022-08-01T08:02:23.545Z,99887.72
2022-08-01T08:04:50.841Z,99888.06
2022-08-01T08:07:18.390Z,99883.89
2022-08-01T08:09:51.032Z,99886.06
2022-08-01T08:12:18.828Z,99888.85
2022-08-01T08:14:56.458Z,99892.71
2022-08-01T08:17:25.314Z,99892.83
2022-08-01T08:19:52.778Z,99896.71
2022-08-01T08:22:20.127Z,99894.85
2022-08-01T08:24:47.454Z,99894.16
2022-08-01T08:27:15.684Z,99894.90
2022-08-01T08:29:43.206Z,99901.65
2022-08-01T08:32:11.336Z,99903.69
2022-08-01T08:34:38.740Z,99905.68
2022-08-01T08:37:05.975Z,99909.90
2022-08-01T08:39:41.977Z,99912.14
2022-08-01T08:42:11.431Z,99919.34
2022-08-01T08:44:43.771Z,99919.05
2022-08-01T08:47:17.366Z,99915.90
2022-08-01T08:49:49.396Z,99917.40
2022-08-01T08:52:17.439Z,99921.86
2022-08-01T08:54:45.349Z,99923.02
2022-08-01T08:57:14.971Z,99923.09
2022-08-01T08:59:44.617Z,99926.83
2022-08-01T09:02:14.066Z,99923.91
2022-08-01T09:04:41.896Z,99922.02
2022-08-01T09:07:10.163Z,99922.39
2022-08-01T09:09:41.656Z,99926.08
2022-08-01T09:12:09.793Z,99925.02
2022-08-01T09:14:47.125Z,99923.30
2022-08-01T09:17:15.036Z,99922.89
2022-08-01T09:19:50.607Z,99926.18
2022-08-01T09:22:22.440Z,99929.40
2022-08-01T09:25:11.716Z,99925.92
2022-08-01T09:27:44.229Z,99929.41
2022-08-01T09:30:23.875Z,99930.14
2022-08-01T09:33:06.163Z,99931.19
2022-08-01T09:35:43.446Z,99927.05
2022-08-01T09:38:20.048Z,99926.61
2022-08-01T09:40:58.007Z,99923.39
2022-08-01T09:43:29.218Z,99921.65
2022-08-01T09:46:01.783Z,99924.53
2022-08-01T09:48:29.297Z,99920.48
2022-08-01T09:51:04.273Z,99920.16
2022-08-01T09:53:51.964Z,99921.45
2022-08-01T09:56:21.872Z,99921.30
2022-08-01T09:59:02.018Z,99914.29
2022-08-01T10:01:42.680Z,99913.21
2022-08-01T10:04:12.777Z,99907.86
2022-08-01T10:06:43.928Z,99911.84
2022-08-01T10:09:14.100Z,99912.24
2022-08-01T10:11:44.761Z,99911.47
2022-08-01T10:14:17.779Z,99910.38
2022-08-01T10:16:45.579Z,99908.64
2022-08-01T10:19:15.472Z,99911.95
2022-08-01T10:21:57.877Z,99909.45
2022-08-01T10:24:29.804Z,99906.02
2022-08-01T10:27:12.172Z,99902.66
2022-08-01T10:30:07.568Z,99907.79
2022-08-01T10:32:50.545Z,99907.36
2022-08-01T10:35:37.999Z,99909.02
2022-08-01T10:38:10.667Z,99910.60
2022-08-01T10:40:43.345Z,99906.52
2022-08-01T10:43:12.367Z,99911.16
2022-08-01T10:45:41.109Z,99906.23
2022-08-01T10:48:20.765Z,99902.48
2022-08-01T10:50:50.884Z,99903.08
2022-08-01T10:53:42.566Z,99900.80
2022-08-01T10:56:13.243Z,99897.20
2022-08-01T10:58:45.185Z,99895.15
2022-08-01T11:01:25.605Z,99893.60
2022-08-01T11:04:04.170Z,99895.00
2022-08-01T11:06:34.573Z,99895.48
2022-08-01T11:09:05.974Z,99894.02
2022-08-01T11:11:37.452Z,99890.93
2022-08-01T11:14:10.873Z,99893.22
2022-08-01T11:16:40.840Z,99897.29
2022-08-01T11:19:13.110Z,99897.67
2022-08-01T11:22:01.360Z,99895.39
2022-08-01T11:24:49.666Z,99898.39
2022-08-01T11:27:23.802Z,99896.55
2022-08-01T11:30:09.562Z,99894.41
2022-08-01T11:33:11.434Z,99894.33
2022-08-01T11:35:40.529Z,99889.28
2022-08-01T11:38:31.703Z,99893.07
2022-08-01T11:41:15.780Z,99895.03
2022-08-01T11:44:07.813Z,99891.89
2022-08-01T11:46:57.803Z,99894.21
2022-08-01T11:49:36.074Z,99897.91
2022-08-01T11:52:12.507Z,99899.73
2022-08-01T11:55:01.915Z,99894.05
2022-08-01T11:57:36.306Z,99895.06
2022-08-01T12:00:15.217Z,99894.27
2022-08-01T12:02:45.880Z,99891.77
2022-08-01T12:05:24.636Z,99888.70
2022-08-01T12:07:53.799Z,99886.14
2022-08-01T12:10:24.190Z,99886.52
2022-08-01T12:12:57.024Z,99886.98
2022-08-01T12:15:31.781Z,99884.39
2022-08-01T12:18:04.163Z,99884.84
2022-08-01T12:20:36.843Z,99883.02
2022-08-01T12:23:08.768Z,99881.59
2022-08-01T12:25:37.592Z,99881.48
2022-08-01T12:28:07.382Z,99879.09
2022-08-01T12:30:36.749Z,99882.91
2022-08-01T12:33:10.003Z,99878.52
2022-08-01T12:35:38.582Z,99875.30
2022-08-01T12:38:06.998Z,99878.27
2022-08-01T12:40:36.441Z,99877.79
2022-08-01T12:43:06.556Z,99877.38
2022-08-01T12:45:54.427Z,99878.05
2022-08-01T12:48:26.329Z,99875.52
2022-08-01T12:50:54.800Z,99876.49
2022-08-01T12:53:22.966Z,99873.02
2022-08-01T12:55:58.038Z,99866.98
2022-08-01T12:58:32.757Z,99869.53
2022-08-01T13:01:09.112Z,99870.32
2022-08-01T13:03:37.210Z,99870.69
2022-08-01T13:06:17.250Z,99876.92
2022-08-01T13:08:46.497Z,99871.92
2022-08-01T13:11:19.405Z,99874.69
2022-08-01T13:13:50.659Z,99874.95
2022-08-01T13:16:27.929Z,99877.23
2022-08-01T13:19:07.206Z,99872.05
2022-08-01T13:21:54.245Z,99870.30
2022-08-01T13:24:30.708Z,99864.45
2022-08-01T13:27:02.149Z,99867.97
2022-08-01T13:29:42.776Z,99864.79
2022-08-01T13:32:28.059Z,99861.22
2022-08-01T13:35:08.125Z,99859.52
2022-08-01T13:37:37.148Z,99859.92
2022-08-01T13:40:07.449Z,99858.39
2022-08-01T13:42:35.283Z,99863.30
2022-08-01T13:45:03.823Z,99863.40
2022-08-01T13:47:33.111Z,99868.63
2022-08-01T13:50:03.789Z,99867.91
2022-08-01T13:52:32.623Z,99869.30
2022-08-01T13:55:00.559Z,99875.66
2022-08-01T13:57:37.084Z,99878.75
2022-08-01T14:00:07.279Z,99877.05
2022-08-01T14:02:40.534Z,99877.60
2022-08-01T14:05:08.283Z,99882.43
2022-08-01T14:07:38.211Z,99884.30
2022-08-01T14:10:18.439Z,99888.52
2022-08-01T14:12:50.986Z,99887.64
2022-08-01T14:15:36.623Z,99893.83
2022-08-01T14:18:09.622Z,99894.73
2022-08-01T14:20:38.410Z,99887.63
2022-08-01T14:23:06.356Z,99888.79
2022-08-01T14:26:02.595Z,99888.48
2022-08-01T14:28:25.977Z,99889.05
2022-08-01T14:30:53.430Z,99889.05
2022-08-01T14:33:21.085Z,99888.05
2022-08-01T14:36:05.718Z,99892.45
2022-08-01T14:38:36.783Z,99899.55
2022-08-01T14:41:05.072Z,99890.04
2022-08-01T14:43:34.204Z,99887.68
2022-08-01T14:46:05.364Z,99889.02
2022-08-01T14:48:34.089Z,99887.14
2022-08-01T14:51:04.363Z,99891.70
2022-08-01T14:53:34.250Z,99887.67
2022-08-01T14:56:04.555Z,99886.41
2022-08-01T14:58:32.224Z,99888.30
2022-08-01T15:00:59.712Z,99884.27
2022-08-01T15:03:27.484Z,99883.05
2022-08-01T15:05:54.808Z,99885.05
2022-08-01T15:08:22.058Z,99883.60
2022-08-01T15:10:49.598Z,99881.50
2022-08-01T15:13:17.364Z,99884.14
2022-08-01T15:15:44.837Z,99886.79
2022-08-01T15:18:12.894Z,99886.67
2022-08-01T15:20:40.248Z,99885.63
2022-08-01T15:23:07.557Z,99890.25
2022-08-01T15:25:41.399Z,99889.54
2022-08-01T15:28:11.220Z,99891.27
2022-08-01T15:30:39.203Z,99897.41
2022-08-01T15:33:07.075Z,99900.50
2022-08-01T15:35:34.762Z,99908.13
2022-08-01T15:38:02.071Z,99915.77
2022-08-01T15:40:29.663Z,99910.61
2022-08-01T15:42:57.303Z,99912.36
2022-08-01T15:48:12.053Z,99923.65
2022-08-01T15:50:39.937Z,99934.08
2022-08-01T15:53:07.802Z,99939.27
2022-08-01T15:55:39.886Z,99945.77
2022-08-01T15:58:08.024Z,99941.12
2022-08-01T16:00:39.308Z,99947.15
2022-08-01T16:03:10.860Z,99949.23
2022-08-01T16:05:43.510Z,99955.65
2022-08-01T16:08:14.889Z,99961.53
2022-08-01T16:10:43.037Z,99962.52
2022-08-01T16:13:10.606Z,99968.61
2022-08-01T16:15:38.465Z,99976.58
2022-08-01T16:18:07.235Z,99970.55
2022-08-01T16:20:38.184Z,99968.20
2022-08-01T16:23:08.248Z,99967.66
2022-08-01T16:25:36.078Z,99967.81
2022-08-01T16:28:04.234Z,99965.92
2022-08-01T16:30:32.116Z,99965.10
2022-08-01T16:33:12.728Z,99963.46
2022-08-01T16:35:47.618Z,99964.67
2022-08-01T16:38:21.048Z,99970.91
2022-08-01T16:40:52.462Z,99973.02
2022-08-01T16:43:20.542Z,99976.59
2022-08-01T16:45:48.582Z,99976.86
2022-08-01T16:48:18.724Z,99980.79
2022-08-01T16:50:51.003Z,99973.93
2022-08-01T16:53:19.439Z,99975.70
2022-08-01T16:55:49.525Z,99977.35
2022-08-01T16:58:27.320Z,99973.76
2022-08-01T17:00:56.694Z,99974.95
2022-08-01T17:03:51.359Z,99969.73
2022-08-01T17:06:13.620Z,99972.79
2022-08-01T17:08:46.840Z,99971.27
2022-08-01T17:11:15.458Z,99974.10
2022-08-01T17:13:43.688Z,99976.28
2022-08-01T17:16:11.539Z,99979.06
2022-08-01T17:18:39.106Z,99977.63
2022-08-01T17:21:06.631Z,99982.23
2022-08-01T17:23:35.562Z,99984.98
2022-08-01T17:26:03.226Z,99988.70
2022-08-01T17:28:30.588Z,99991.60
2022-08-01T17:30:58.429Z,99999.48
2022-08-01T17:33:44.328Z,99998.15
2022-08-01T17:36:13.208Z,100005.36
2022-08-01T17:38:40.462Z,100010.45
2022-08-01T17:41:07.725Z,100016.59
2022-08-01T17:43:35.279Z,100010.30
2022-08-01T17:46:02.528Z,100015.44
2022-08-01T17:48:29.978Z,100018.45
2022-08-01T17:50:57.231Z,100024.77
2022-08-01T17:53:24.493Z,100031.56
2022-08-01T17:55:55.605Z,100038.84
2022-08-01T17:58:36.626Z,100036.35
2022-08-01T18:01:17.741Z,100046.30
2022-08-01T18:03:45.548Z,100049.02
2022-08-01T18:06:15.675Z,100052.48
2022-08-01T18:08:44.130Z,100051.91
2022-08-01T18:11:11.890Z,100056.45
2022-08-01T18:13:40.501Z,100056.02
2022-08-01T18:16:09.511Z,100060.58
2022-08-01T18:18:38.834Z,100062.60
2022-08-01T18:21:07.675Z,100069.65
2022-08-01T18:23:36.064Z,100066.06
2022-08-01T18:26:04.345Z,100066.98
2022-08-01T18:28:35.339Z,100071.20
2022-08-01T18:31:27.610Z,100069.05
2022-08-01T18:33:55.164Z,100071.57
2022-08-01T18:36:33.143Z,100073.88
2022-08-01T18:39:10.088Z,100074.23
2022-08-01T18:41:38.864Z,100076.91
2022-08-01T18:44:08.317Z,100072.36
2022-08-01T18:46:38.228Z,100081.90
2022-08-01T18:49:07.024Z,100082.19
2022-08-01T18:51:34.624Z,100085.16
2022-08-01T18:54:02.277Z,100090.83
2022-08-01T18:56:29.851Z,100085.92
2022-08-01T18:58:57.304Z,100088.73
2022-08-01T19:01:25.025Z,100090.04
2022-08-01T19:03:52.824Z,100099.67
2022-08-01T19:06:20.485Z,100106.66
2022-08-01T19:08:48.204Z,100107.31
2022-08-01T19:11:15.697Z,100111.10
2022-08-01T19:13:43.063Z,100111.64
2022-08-01T19:16:10.424Z,100114.16
2022-08-01T19:18:41.611Z,100120.27
2022-08-01T19:21:09.110Z,100125.94
2022-08-01T19:23:55.523Z,100131.19
2022-08-01T19:26:26.254Z,100136.09
2022-08-01T19:29:09.959Z,100137.55
2022-08-01T19:31:43.327Z,100136.21
2022-08-01T19:34:15.907Z,100131.45
2022-08-01T19:36:47.665Z,100136.79
2022-08-01T19:39:17.272Z,100133.42
2022-08-01T19:41:47.124Z,100135.52
2022-08-01T19:44:17.167Z,100136.55
2022-08-01T19:46:45.112Z,100140.23
2022-08-01T19:49:14.710Z,100137.02
2022-08-01T19:51:53.125Z,100141.39
2022-08-01T19:54:22.644Z,100138.98
2022-08-01T19:56:51.733Z,100144.52
2022-08-01T19:59:21.948Z,100146.91
2022-08-01T20:01:50.844Z,100144.35
2022-08-01T20:04:19.544Z,100148.94
2022-08-01T20:06:47.970Z,100150.39
2022-08-01T20:09:15.483Z,100155.11
2022-08-01T20:11:48.221Z,100155.23
2022-08-01T20:14:25.016Z,100156.95
2022-08-01T20:16:54.961Z,100161.98
2022-08-01T20:19:25.282Z,100163.16
2022-08-01T20:22:02.797Z,100166.51
2022-08-01T20:24:39.491Z,100166.59
2022-08-01T20:27:10.346Z,100173.12
2022-08-01T20:29:39.364Z,100179.13
2022-08-01T20:32:07.755Z,100178.33
2022-08-01T20:34:39.615Z,100177.08
2022-08-01T20:37:12.865Z,100180.98
2022-08-01T20:39:45.346Z,100188.09
2022-08-01T20:42:14.346Z,100187.34
2022-08-01T20:44:43.490Z,100186.98
2022-08-01T20:47:11.421Z,100182.25
2022-08-01T20:49:39.219Z,100182.59
2022-08-01T20:52:11.564Z,100180.80
2022-08-01T20:54:40.987Z,100180.09
2022-08-01T20:57:26.663Z,100182.27
2022-08-01T21:00:04.002Z,100178.38
2022-08-01T21:02:53.425Z,100179.95
2022-08-01T21:05:32.866Z,100175.46
2022-08-01T21:08:23.216Z,100175.46
2022-08-01T21:10:58.991Z,100173.58
2022-08-01T21:13:37.567Z,100173.34
2022-08-01T21:16:24.458Z,100173.71
2022-08-01T21:19:18.717Z,100171.78
2022-08-01T21:21:52.422Z,100171.30
2022-08-01T21:24:20.184Z,100170.85
2022-08-01T21:26:47.631Z,100174.31
2022-08-01T21:29:15.801Z,100174.42
2022-08-01T21:31:43.434Z,100177.17
2022-08-01T21:34:12.986Z,100176.45
2022-08-01T21:36:40.943Z,100175.94
2022-08-01T21:39:08.500Z,100179.00
2022-08-01T21:41:56.255Z,100181.56
2022-08-01T21:44:28.957Z,100185.73
2022-08-01T21:47:00.748Z,100183.71
2022-08-01T21:49:28.509Z,100187.39
2022-08-01T21:52:08.768Z,100190.24
2022-08-01T21:54:58.158Z,100196.09
2022-08-01T21:57:33.298Z,100197.62
2022-08-01T22:00:20.876Z,100203.20
2022-08-01T22:03:05.172Z,100204.89
2022-08-01T22:05:49.706Z,100213.76
2022-08-01T22:08:28.893Z,100209.02
2022-08-01T22:11:00.247Z,100210.42
2022-08-01T22:13:27.468Z,100207.33
2022-08-01T22:15:57.585Z,100205.03
2022-08-01T22:18:26.679Z,100203.15
2022-08-01T22:20:54.964Z,100202.25
2022-08-01T22:23:23.761Z,100201.17
2022-08-01T22:25:55.626Z,100201.61
2022-08-01T22:28:23.800Z,100201.69
2022-08-01T22:30:52.388Z,100201.59
2022-08-01T22:33:20.614Z,100201.65
2022-08-01T22:35:49.573Z,100201.59
2022-08-01T22:38:22.893Z,100203.20
2022-08-01T22:40:53.368Z,100204.48
2022-08-01T22:43:35.068Z,100206.59
2022-08-01T22:46:27.161Z,100206.50
2022-08-01T22:49:09.341Z,100211.48
2022-08-01T22:52:05.506Z,100213.75
2022-08-01T22:54:41.071Z,100221.70
2022-08-01T22:57:13.152Z,100219.34
2022-08-01T22:59:56.592Z,100220.02
2022-08-01T23:02:24.819Z,100219.32
2022-08-01T23:04:58.170Z,100219.25
2022-08-01T23:07:29.147Z,100218.93
2022-08-01T23:09:57.531Z,100221.84
2022-08-01T23:12:26.299Z,100224.58
2022-08-01T23:14:56.105Z,100225.58
2022-08-01T23:17:27.755Z,100229.20
2022-08-01T23:20:01.408Z,100230.39
2022-08-01T23:22:31.614Z,100228.48
2022-08-01T23:25:04.686Z,100233.45
2022-08-01T23:27:55.798Z,100234.52
2022-08-01T23:30:27.268Z,100235.23
2022-08-01T23:32:55.144Z,100235.59
2022-08-01T23:35:23.031Z,100232.71
2022-08-01T23:37:51.479Z,100232.23
2022-08-01T23:40:19.814Z,100232.05
2022-08-01T23:42:47.130Z,100232.30
2022-08-01T23:45:14.861Z,100231.76
2022-08-01T23:47:42.331Z,100232.94
2022-08-01T23:50:10.199Z,100232.55
2022-08-01T23:52:49.627Z,100237.26
2022-08-01T23:55:18.246Z,100234.13
2022-08-01T23:57:46.202Z,100239.68
